createdAt,value
2022-12-23T00:01:23.710Z,4.25
2022-12-23T00:03:30.080Z,4.00
2022-12-23T00:05:38.589Z,4.72
2022-12-23T00:07:44.942Z,6.13
2022-12-23T00:09:52.407Z,4.88
2022-12-23T00:12:09.464Z,4.50
2022-12-23T00:14:26.671Z,5.10
2022-12-23T00:16:31.783Z,4.70
2022-12-23T00:20:41.799Z,5.13
2022-12-23T00:22:59.102Z,6.18
2022-12-23T00:25:07.058Z,4.35
2022-12-23T00:27:11.917Z,4.25
2022-12-23T00:29:16.723Z,4.07
2022-12-23T00:31:22.514Z,3.55
2022-12-23T00:33:29.147Z,3.67
2022-12-23T00:35:34.431Z,3.00
2022-12-23T00:39:58.716Z,3.05
2022-12-23T00:42:24.230Z,3.75
2022-12-23T00:44:29.780Z,3.25
2022-12-23T00:46:35.453Z,2.80
2022-12-23T00:48:52.908Z,3.47
2022-12-23T00:50:57.691Z,3.05
2022-12-23T00:53:02.614Z,2.60
2022-12-23T00:55:08.812Z,2.63
2022-12-23T00:57:16.201Z,2.40
2022-12-23T00:59:20.948Z,2.75
2022-12-23T01:01:38.318Z,2.60
2022-12-23T01:03:55.579Z,3.38
2022-12-23T01:06:01.471Z,2.50
2022-12-23T01:08:07.324Z,3.08
2022-12-23T01:10:12.967Z,2.80
2022-12-23T01:12:20.801Z,2.70
2022-12-23T01:14:25.697Z,3.00
2022-12-23T01:16:30.683Z,2.42
2022-12-23T01:18:41.014Z,2.25
2022-12-23T01:20:45.753Z,3.25
2022-12-23T01:22:50.715Z,3.60
2022-12-23T01:24:55.483Z,2.80
2022-12-23T01:27:00.569Z,2.60
2022-12-23T01:29:07.977Z,3.10
2022-12-23T01:31:14.065Z,2.40
2022-12-23T01:33:18.832Z,3.20
2022-12-23T01:35:23.622Z,2.70
2022-12-23T01:37:28.423Z,4.00
2022-12-23T01:39:33.394Z,2.88
2022-12-23T01:41:50.586Z,3.30
2022-12-23T01:43:55.369Z,3.38
2022-12-23T01:46:02.766Z,3.10
2022-12-23T01:48:12.876Z,3.42
2022-12-23T01:50:22.730Z,3.10
2022-12-23T01:52:28.041Z,3.22
2022-12-23T01:54:32.900Z,3.22
2022-12-23T01:56:40.965Z,3.10
2022-12-23T01:58:49.999Z,2.80
2022-12-23T02:01:24.078Z,2.85
2022-12-23T02:03:44.800Z,3.38
2022-12-23T02:05:51.072Z,2.95
2022-12-23T02:08:09.196Z,2.90
2022-12-23T02:10:11.821Z,3.15
2022-12-23T02:12:38.939Z,3.28
2022-12-23T02:15:08.609Z,3.55
2022-12-23T02:17:25.362Z,3.15
2022-12-23T02:19:56.896Z,3.83
2022-12-23T02:22:20.130Z,3.55
2022-12-23T02:24:58.584Z,3.13
2022-12-23T02:27:12.281Z,2.63
2022-12-23T02:29:45.895Z,2.92
2022-12-23T02:32:01.225Z,3.05
2022-12-23T02:34:15.006Z,3.13
2022-12-23T02:36:37.454Z,3.00
2022-12-23T02:38:47.492Z,2.90
2022-12-23T02:41:03.209Z,2.75
2022-12-23T02:43:15.380Z,2.47
2022-12-23T02:45:29.490Z,3.30
2022-12-23T02:47:43.087Z,3.22
2022-12-23T02:49:51.914Z,2.65
2022-12-23T02:51:58.972Z,2.08
2022-12-23T02:54:07.008Z,2.80
2022-12-23T02:56:14.746Z,2.60
2022-12-23T02:58:24.400Z,2.58
2022-12-23T03:00:29.527Z,3.30
2022-12-23T03:02:39.166Z,3.03
2022-12-23T03:04:44.423Z,2.60
2022-12-23T03:06:52.525Z,2.75
2022-12-23T03:08:59.672Z,3.15
2022-12-23T03:11:08.557Z,3.65
2022-12-23T03:13:21.230Z,2.88
2022-12-23T03:15:35.041Z,2.80
2022-12-23T03:17:57.779Z,2.33
2022-12-23T03:20:11.542Z,2.85
2022-12-23T03:22:24.528Z,3.20
2022-12-23T03:24:40.747Z,2.60
2022-12-23T03:26:52.523Z,2.88
2022-12-23T03:29:01.099Z,2.83
2022-12-23T03:31:10.638Z,3.35
2022-12-23T03:33:22.256Z,2.35
2022-12-23T03:35:32.803Z,3.00
2022-12-23T03:37:40.724Z,2.80
2022-12-23T03:39:51.113Z,3.22
2022-12-23T03:42:00.941Z,2.45
2022-12-23T03:44:09.718Z,2.17
2022-12-23T03:46:21.876Z,2.42
2022-12-23T03:48:34.328Z,2.35
2022-12-23T03:50:42.978Z,2.40
2022-12-23T03:52:54.648Z,2.67
2022-12-23T03:55:02.188Z,2.30
2022-12-23T03:57:10.261Z,2.50
2022-12-23T03:59:21.144Z,2.40
2022-12-23T04:01:34.344Z,2.45
2022-12-23T04:03:51.472Z,2.10
2022-12-23T04:06:02.609Z,2.47
2022-12-23T04:08:16.408Z,2.20
2022-12-23T04:10:23.385Z,2.30
2022-12-23T04:12:30.638Z,2.20
2022-12-23T04:14:38.372Z,2.63
2022-12-23T04:16:43.216Z,2.92
2022-12-23T04:18:50.562Z,2.30
2022-12-23T04:20:55.389Z,2.30
2022-12-23T04:23:00.157Z,3.13
2022-12-23T04:25:04.974Z,2.65
2022-12-23T04:27:10.425Z,2.67
2022-12-23T04:29:15.219Z,2.40
2022-12-23T04:31:20.035Z,2.22
2022-12-23T04:33:24.901Z,2.63
2022-12-23T04:35:32.271Z,2.92
2022-12-23T04:37:37.154Z,3.15
2022-12-23T04:39:41.923Z,3.63
2022-12-23T04:41:46.742Z,2.85
2022-12-23T04:43:53.339Z,3.67
2022-12-23T04:45:58.499Z,2.50
2022-12-23T04:48:03.266Z,2.70
2022-12-23T04:50:09.303Z,2.30
2022-12-23T04:52:16.671Z,2.60
2022-12-23T04:54:21.475Z,2.58
2022-12-23T04:56:26.270Z,2.40
2022-12-23T04:58:31.089Z,2.72
2022-12-23T05:00:39.770Z,2.28
2022-12-23T05:02:45.074Z,2.33
2022-12-23T05:04:49.940Z,2.13
2022-12-23T05:06:54.794Z,2.40
2022-12-23T05:09:02.178Z,2.03
2022-12-23T05:11:07.615Z,1.73
2022-12-23T05:13:12.356Z,2.25
2022-12-23T05:15:17.180Z,2.20
2022-12-23T05:17:21.936Z,2.15
2022-12-23T05:19:26.729Z,1.90
2022-12-23T05:21:31.488Z,1.85
2022-12-23T05:23:36.363Z,2.00
2022-12-23T05:25:43.920Z,2.42
2022-12-23T05:27:48.755Z,2.38
2022-12-23T05:29:53.526Z,2.15
2022-12-23T05:31:58.625Z,2.42
2022-12-23T05:34:06.634Z,2.53
2022-12-23T05:36:13.856Z,1.85
2022-12-23T05:38:18.639Z,1.80
2022-12-23T05:40:25.338Z,1.85
2022-12-23T05:42:34.479Z,2.17
2022-12-23T05:44:39.304Z,2.30
2022-12-23T05:46:44.162Z,2.10
2022-12-23T05:48:49.169Z,1.95
2022-12-23T05:50:54.774Z,2.20
2022-12-23T05:52:59.660Z,1.77
2022-12-23T05:55:04.588Z,1.60
2022-12-23T05:57:09.419Z,1.90
2022-12-23T05:59:16.789Z,2.05
2022-12-23T06:01:21.654Z,1.98
2022-12-23T06:03:26.594Z,1.95
2022-12-23T06:07:36.717Z,1.70
2022-12-23T06:09:41.605Z,1.70
2022-12-23T06:11:46.428Z,1.60
2022-12-23T06:13:52.678Z,1.80
2022-12-23T06:16:00.100Z,1.38
2022-12-23T06:18:04.939Z,1.40
2022-12-23T06:20:17.970Z,1.30
2022-12-23T06:22:24.950Z,1.10
2022-12-23T06:24:29.732Z,1.08
2022-12-23T06:26:36.111Z,1.30
2022-12-23T06:28:41.245Z,1.23
2022-12-23T06:30:48.520Z,1.20
2022-12-23T06:32:55.956Z,0.90
2022-12-23T06:35:00.739Z,1.00
2022-12-23T06:37:06.303Z,0.90
2022-12-23T06:39:20.314Z,0.90
2022-12-23T06:41:25.847Z,1.00
2022-12-23T06:45:37.051Z,0.88
2022-12-23T06:47:42.112Z,1.10
2022-12-23T06:49:49.521Z,1.05
2022-12-23T06:51:54.728Z,1.20
2022-12-23T06:54:01.466Z,1.10
2022-12-23T06:56:07.309Z,1.23
2022-12-23T06:58:12.188Z,0.90
2022-12-23T07:00:18.677Z,1.20
2022-12-23T07:02:23.646Z,1.35
2022-12-23T07:04:28.647Z,1.05
2022-12-23T07:06:36.054Z,1.00
2022-12-23T07:08:40.846Z,0.90
2022-12-23T07:10:46.786Z,0.90
2022-12-23T07:12:54.210Z,0.80
2022-12-23T07:14:58.972Z,0.82
2022-12-23T07:17:03.907Z,0.80
2022-12-23T07:19:08.834Z,0.77
2022-12-23T07:21:22.942Z,0.77
2022-12-23T07:23:35.819Z,1.17
2022-12-23T07:25:41.146Z,0.88
2022-12-23T07:29:50.638Z,0.60
2022-12-23T07:31:56.181Z,0.80
2022-12-23T07:34:01.072Z,0.75
2022-12-23T07:36:05.986Z,0.52
2022-12-23T07:38:13.755Z,0.50
2022-12-23T07:40:21.306Z,1.02
2022-12-23T07:44:51.213Z,1.13
2022-12-23T07:46:56.017Z,0.80
2022-12-23T07:49:01.127Z,0.60
2022-12-23T07:51:07.045Z,0.93
2022-12-23T07:53:11.910Z,1.13
2022-12-23T07:55:17.055Z,2.80
2022-12-23T07:57:24.485Z,3.28
2022-12-23T07:59:29.523Z,2.80
2022-12-23T08:01:34.480Z,1.40
2022-12-23T08:03:40.161Z,1.20
2022-12-23T08:05:44.945Z,1.50
2022-12-23T08:07:50.208Z,1.20
2022-12-23T08:09:57.504Z,1.10
2022-12-23T08:12:04.824Z,1.00
2022-12-23T08:14:12.402Z,1.00
2022-12-23T08:16:18.399Z,1.02
2022-12-23T08:18:23.177Z,0.93
2022-12-23T08:20:28.008Z,1.30
2022-12-23T08:22:34.253Z,0.85
2022-12-23T08:24:39.318Z,0.73
2022-12-23T08:26:44.089Z,0.80
2022-12-23T08:28:53.697Z,0.80
2022-12-23T08:31:13.005Z,1.02
2022-12-23T08:33:17.887Z,1.20
2022-12-23T08:35:22.706Z,1.38
2022-12-23T08:37:27.741Z,2.10
2022-12-23T08:39:32.569Z,2.00
2022-12-23T08:41:41.621Z,5.38
2022-12-23T08:43:47.212Z,3.90
2022-12-23T08:45:52.418Z,2.17
2022-12-23T08:50:04.872Z,2.63
2022-12-23T08:52:09.641Z,2.42
2022-12-23T08:54:14.629Z,1.30
2022-12-23T08:56:21.221Z,1.63
2022-12-23T08:58:26.000Z,1.20
2022-12-23T09:00:30.813Z,1.40
2022-12-23T09:02:35.841Z,1.83
2022-12-23T09:06:48.312Z,1.63
2022-12-23T09:10:58.058Z,1.40
2022-12-23T09:13:02.828Z,1.45
2022-12-23T09:15:09.856Z,1.60
2022-12-23T09:17:14.751Z,1.10
2022-12-23T09:19:19.550Z,1.30
2022-12-23T09:21:27.425Z,1.30
2022-12-23T09:23:32.323Z,1.60
2022-12-23T09:25:38.842Z,1.60
2022-12-23T09:27:43.683Z,1.88
2022-12-23T09:29:48.475Z,4.22
2022-12-23T09:31:53.975Z,4.05
2022-12-23T09:33:59.309Z,3.60
2022-12-23T09:36:04.974Z,2.03
2022-12-23T09:38:12.367Z,1.67
2022-12-23T09:40:22.043Z,1.65
2022-12-23T09:42:40.612Z,1.20
2022-12-23T09:45:02.249Z,1.05
2022-12-23T09:47:10.831Z,1.10
2022-12-23T09:49:19.246Z,1.15
2022-12-23T09:51:26.401Z,1.40
2022-12-23T09:53:47.091Z,1.70
2022-12-23T09:55:57.190Z,1.75
2022-12-23T09:58:04.765Z,2.08
2022-12-23T10:00:14.897Z,2.08
2022-12-23T10:02:27.870Z,2.08
2022-12-23T10:04:50.202Z,1.85
2022-12-23T10:07:04.502Z,2.28
2022-12-23T10:09:14.902Z,2.25
2022-12-23T10:11:23.987Z,2.50
2022-12-23T10:13:35.061Z,2.38
2022-12-23T10:15:44.225Z,2.40
2022-12-23T10:17:52.774Z,2.55
2022-12-23T10:20:02.520Z,2.55
2022-12-23T10:22:13.128Z,2.20
2022-12-23T10:24:25.187Z,2.13
2022-12-23T10:26:37.645Z,2.50
2022-12-23T10:28:42.678Z,2.55
2022-12-23T10:31:17.354Z,2.47
2022-12-23T10:33:24.723Z,2.13
2022-12-23T10:35:48.389Z,2.03
2022-12-23T10:38:04.867Z,2.50
2022-12-23T10:40:23.598Z,2.63
2022-12-23T10:42:36.807Z,2.20
2022-12-23T10:44:57.754Z,2.00
2022-12-23T10:47:12.721Z,1.90
2022-12-23T10:49:29.115Z,1.85
2022-12-23T10:51:37.936Z,2.70
2022-12-23T10:53:49.504Z,2.70
2022-12-23T10:55:58.845Z,2.55
2022-12-23T10:58:10.255Z,2.60
2022-12-23T11:00:21.748Z,2.13
2022-12-23T11:02:47.251Z,2.30
2022-12-23T11:04:53.334Z,2.10
2022-12-23T11:09:26.224Z,3.00
2022-12-23T11:12:02.534Z,2.90
2022-12-23T11:14:07.429Z,3.58
2022-12-23T11:16:25.740Z,2.97
2022-12-23T11:18:30.599Z,2.53
2022-12-23T11:20:36.320Z,2.47
2022-12-23T11:22:52.034Z,2.78
2022-12-23T11:24:57.325Z,2.17
2022-12-23T11:27:07.633Z,2.30
2022-12-23T11:29:15.829Z,2.10
2022-12-23T11:31:32.579Z,2.33
2022-12-23T11:33:40.297Z,2.50
2022-12-23T11:35:47.281Z,3.17
2022-12-23T11:37:53.048Z,3.17
2022-12-23T11:39:58.131Z,2.70
2022-12-23T11:44:23.600Z,2.28
2022-12-23T11:46:31.209Z,1.67
2022-12-23T11:48:36.845Z,2.00
2022-12-23T11:50:43.224Z,2.55
2022-12-23T11:52:54.351Z,2.50
2022-12-23T11:55:05.204Z,2.13
2022-12-23T11:57:20.133Z,2.47
2022-12-23T11:59:32.275Z,2.53
2022-12-23T12:01:39.509Z,2.17
2022-12-23T12:03:50.183Z,2.92
2022-12-23T12:05:59.011Z,4.28
2022-12-23T12:08:06.619Z,6.57
2022-12-23T12:10:20.129Z,6.22
2022-12-23T12:12:27.629Z,5.20
2022-12-23T12:14:36.529Z,3.40
2022-12-23T12:16:54.638Z,3.47
2022-12-23T12:19:04.356Z,2.78
2022-12-23T12:21:14.241Z,2.50
2022-12-23T12:23:24.561Z,2.47
2022-12-23T12:25:41.010Z,2.30
2022-12-23T12:27:54.120Z,2.08
2022-12-23T12:30:08.158Z,2.03
2022-12-23T12:32:21.998Z,2.15
2022-12-23T12:34:36.913Z,2.38
2022-12-23T12:36:49.366Z,2.55
2022-12-23T12:38:57.329Z,2.30
2022-12-23T12:41:10.059Z,2.53
2022-12-23T12:43:26.827Z,2.05
2022-12-23T12:45:41.598Z,2.15
2022-12-23T12:48:02.181Z,2.78
2022-12-23T12:50:18.179Z,2.50
2022-12-23T12:52:24.877Z,2.35
2022-12-23T12:54:34.538Z,2.60
2022-12-23T12:56:46.085Z,2.30
2022-12-23T12:58:53.644Z,2.70
2022-12-23T13:01:10.252Z,2.92
2022-12-23T13:03:35.006Z,2.65
2022-12-23T13:05:58.602Z,3.63
2022-12-23T13:08:19.894Z,3.35
2022-12-23T13:10:37.151Z,4.70
2022-12-23T13:12:55.048Z,5.10
2022-12-23T13:15:11.503Z,5.50
2022-12-23T13:17:24.577Z,3.75
2022-12-23T13:19:38.404Z,2.92
2022-12-23T13:21:51.189Z,2.53
2022-12-23T13:24:04.317Z,2.72
2022-12-23T13:26:20.958Z,2.13
2022-12-23T13:28:37.044Z,2.40
2022-12-23T13:30:52.281Z,2.10
2022-12-23T13:33:16.989Z,2.90
2022-12-23T13:35:37.566Z,2.90
2022-12-23T13:37:51.907Z,3.08
2022-12-23T13:40:06.257Z,3.17
2022-12-23T13:42:16.618Z,2.90
2022-12-23T13:44:22.304Z,3.30
2022-12-23T13:46:43.281Z,3.17
2022-12-23T13:48:54.446Z,4.07
2022-12-23T13:51:05.332Z,3.75
2022-12-23T13:53:20.546Z,3.00
2022-12-23T13:55:42.806Z,3.53
2022-12-23T13:57:57.606Z,3.90
2022-12-23T14:00:06.283Z,3.63
2022-12-23T14:02:47.105Z,3.28
2022-12-23T14:05:02.516Z,3.63
2022-12-23T14:07:20.880Z,3.38
2022-12-23T14:09:33.166Z,3.47
2022-12-23T14:11:38.124Z,3.58
2022-12-23T14:13:46.613Z,3.65
2022-12-23T14:16:04.245Z,5.22
2022-12-23T14:18:26.956Z,3.97
2022-12-23T14:20:43.476Z,3.67
2022-12-23T14:23:07.135Z,3.58
2022-12-23T14:25:34.289Z,3.67
2022-12-23T14:27:49.432Z,4.75
2022-12-23T14:30:06.489Z,3.70
2022-12-23T14:32:22.662Z,3.75
2022-12-23T14:34:36.293Z,3.65
2022-12-23T14:36:41.159Z,3.15
2022-12-23T14:41:27.103Z,3.58
2022-12-23T14:43:55.818Z,4.22
2022-12-23T14:46:02.059Z,3.50
2022-12-23T14:48:41.918Z,4.50
2022-12-23T14:51:00.355Z,4.88
2022-12-23T14:53:06.546Z,4.57
2022-12-23T14:55:56.243Z,4.38
2022-12-23T14:58:08.456Z,5.03
2022-12-23T15:00:13.789Z,5.65
2022-12-23T15:02:23.637Z,6.22
2022-12-23T15:04:32.393Z,6.45
2022-12-23T15:06:43.687Z,5.68
2022-12-23T15:08:51.154Z,5.70
2022-12-23T15:10:56.977Z,5.05
2022-12-23T15:13:06.249Z,5.18
2022-12-23T15:15:19.242Z,5.53
2022-12-23T15:17:29.925Z,5.25
2022-12-23T15:19:35.914Z,5.22
2022-12-23T15:21:46.198Z,6.25
2022-12-23T15:23:53.624Z,5.30
2022-12-23T15:26:01.502Z,6.32
2022-12-23T15:28:06.946Z,5.93
2022-12-23T15:30:15.615Z,5.40
2022-12-23T15:32:21.462Z,5.32
2022-12-23T15:34:28.863Z,6.93
2022-12-23T15:36:37.058Z,6.22
2022-12-23T15:38:45.496Z,6.30
2022-12-23T15:41:00.516Z,6.75
2022-12-23T15:43:06.573Z,6.38
2022-12-23T15:45:34.976Z,6.32
2022-12-23T15:47:43.099Z,5.78
2022-12-23T15:49:47.939Z,5.15
2022-12-23T15:54:26.039Z,5.40
2022-12-23T15:56:33.806Z,5.68
2022-12-23T15:58:41.889Z,5.25
2022-12-23T16:00:54.967Z,4.63
2022-12-23T16:03:02.822Z,5.38
2022-12-23T16:05:10.541Z,4.53
2022-12-23T16:07:28.284Z,4.20
2022-12-23T16:09:38.115Z,4.20
2022-12-23T16:11:52.519Z,3.85
2022-12-23T16:13:59.304Z,3.70
2022-12-23T16:16:36.071Z,3.50
2022-12-23T16:18:47.854Z,3.45
2022-12-23T16:20:56.271Z,3.92
2022-12-23T16:23:05.829Z,4.20
2022-12-23T16:25:20.600Z,3.28
2022-12-23T16:27:35.937Z,3.80
2022-12-23T16:29:42.772Z,4.93
2022-12-23T16:31:54.309Z,3.50
2022-12-23T16:34:03.468Z,3.08
2022-12-23T16:36:36.340Z,2.88
2022-12-23T16:38:42.172Z,2.65
2022-12-23T16:40:51.369Z,3.10
2022-12-23T16:42:56.530Z,2.72
2022-12-23T16:47:09.846Z,2.80
2022-12-23T16:49:18.881Z,3.78
2022-12-23T16:51:25.460Z,3.50
2022-12-23T16:53:30.679Z,3.90
2022-12-23T16:55:52.527Z,2.80
2022-12-23T16:58:04.131Z,3.38
2022-12-23T17:00:10.632Z,3.80
2022-12-23T17:02:22.635Z,4.53
2022-12-23T17:04:27.499Z,3.10
2022-12-23T17:06:32.535Z,2.75
2022-12-23T17:08:37.343Z,3.13
2022-12-23T17:10:46.591Z,2.40
2022-12-23T17:12:53.154Z,2.30
2022-12-23T17:15:00.560Z,2.92
2022-12-23T17:17:05.760Z,2.25
2022-12-23T17:21:22.737Z,2.20
2022-12-23T17:23:32.651Z,2.40
2022-12-23T17:25:37.568Z,2.03
2022-12-23T17:27:43.235Z,1.92
2022-12-23T17:29:48.088Z,1.83
2022-12-23T17:31:55.955Z,2.00
2022-12-23T17:34:00.890Z,1.63
2022-12-23T17:36:05.781Z,2.22
2022-12-23T17:38:18.765Z,1.70
2022-12-23T17:40:23.604Z,1.67
2022-12-23T17:42:29.580Z,1.85
2022-12-23T17:44:34.449Z,1.70
2022-12-23T17:46:39.287Z,1.60
2022-12-23T17:48:48.074Z,1.50
2022-12-23T17:50:53.602Z,1.38
2022-12-23T17:52:58.491Z,1.70
2022-12-23T17:55:03.346Z,2.35
2022-12-23T17:57:23.456Z,1.95
2022-12-23T17:59:28.423Z,2.08
2022-12-23T18:03:39.795Z,1.30
2022-12-23T18:05:47.377Z,1.83
2022-12-23T18:07:52.932Z,1.70
2022-12-23T18:09:57.729Z,1.60
2022-12-23T18:12:02.551Z,1.50
2022-12-23T18:14:07.495Z,1.50
2022-12-23T18:16:14.966Z,1.77
2022-12-23T18:18:27.488Z,1.52
2022-12-23T18:20:35.914Z,1.20
2022-12-23T18:22:43.482Z,1.58
2022-12-23T18:24:52.479Z,1.15
2022-12-23T18:27:00.522Z,1.50
2022-12-23T18:31:17.621Z,1.60
2022-12-23T18:33:24.253Z,1.30
2022-12-23T18:35:32.386Z,1.80
2022-12-23T18:37:37.192Z,1.30
2022-12-23T18:39:44.977Z,1.10
2022-12-23T18:41:49.819Z,1.00
2022-12-23T18:43:54.821Z,1.00
2022-12-23T18:45:59.647Z,1.20
2022-12-23T18:48:05.533Z,1.00
2022-12-23T18:50:11.700Z,1.00
2022-12-23T18:52:16.570Z,0.82
2022-12-23T18:54:21.546Z,0.98
2022-12-23T18:56:28.891Z,0.90
2022-12-23T18:58:33.735Z,1.10
2022-12-23T19:00:39.772Z,0.65
2022-12-23T19:02:44.809Z,0.70
2022-12-23T19:04:49.681Z,0.70
2022-12-23T19:06:54.706Z,0.88
2022-12-23T19:08:59.504Z,1.33
2022-12-23T19:11:04.920Z,1.00
2022-12-23T19:13:12.894Z,0.80
2022-12-23T19:15:18.383Z,0.80
2022-12-23T19:17:23.154Z,0.73
2022-12-23T19:19:28.242Z,0.80
2022-12-23T19:21:33.089Z,0.80
2022-12-23T19:23:38.069Z,1.35
2022-12-23T19:25:47.791Z,1.20
2022-12-23T19:27:59.897Z,0.90
2022-12-23T19:32:12.662Z,0.73
2022-12-23T19:34:19.811Z,0.77
2022-12-23T19:36:25.552Z,0.80
2022-12-23T19:38:30.525Z,1.20
2022-12-23T19:40:35.336Z,1.50
2022-12-23T19:42:40.503Z,1.05
2022-12-23T19:46:52.662Z,1.05
2022-12-23T19:48:57.769Z,1.00
2022-12-23T19:53:08.231Z,1.10
2022-12-23T19:55:13.565Z,1.08
2022-12-23T19:57:18.476Z,1.02
2022-12-23T19:59:23.768Z,1.10
2022-12-23T20:01:29.534Z,0.80
2022-12-23T20:03:37.192Z,0.70
2022-12-23T20:05:42.287Z,0.98
2022-12-23T20:07:47.071Z,1.30
2022-12-23T20:09:52.469Z,1.00
2022-12-23T20:11:57.274Z,1.10
2022-12-23T20:14:03.883Z,1.10
2022-12-23T20:16:09.774Z,1.20
2022-12-23T20:18:14.762Z,1.63
2022-12-23T20:20:22.108Z,1.30
2022-12-23T20:22:26.961Z,1.20
2022-12-23T20:24:33.321Z,1.60
2022-12-23T20:26:38.513Z,1.50
2022-12-23T20:28:44.026Z,1.30
2022-12-23T20:30:48.984Z,1.17
2022-12-23T20:32:53.758Z,1.42
2022-12-23T20:34:58.652Z,1.27
2022-12-23T20:37:06.122Z,1.00
2022-12-23T20:39:11.007Z,1.00
2022-12-23T20:41:17.787Z,1.35
2022-12-23T20:43:22.716Z,1.00
2022-12-23T20:45:27.453Z,0.85
2022-12-23T20:47:32.740Z,1.02
2022-12-23T20:49:37.680Z,0.98
2022-12-23T20:51:43.123Z,1.23
2022-12-23T20:53:51.178Z,1.50
2022-12-23T20:55:56.300Z,1.17
2022-12-23T21:00:25.905Z,1.50
2022-12-23T21:02:30.681Z,1.20
2022-12-23T21:04:35.497Z,1.20
2022-12-23T21:06:40.704Z,1.88
2022-12-23T21:10:57.952Z,1.13
2022-12-23T21:13:02.792Z,1.40
2022-12-23T21:15:08.405Z,1.08
2022-12-23T21:17:13.214Z,1.33
2022-12-23T21:19:20.199Z,1.10
2022-12-23T21:21:26.818Z,1.20
2022-12-23T21:23:32.211Z,1.02
2022-12-23T21:25:37.243Z,1.20
2022-12-23T21:27:44.711Z,1.58
2022-12-23T21:29:49.547Z,1.20
2022-12-23T21:31:55.319Z,1.10
2022-12-23T21:34:01.023Z,0.88
2022-12-23T21:36:06.060Z,1.40
2022-12-23T21:40:16.407Z,1.30
2022-12-23T21:42:21.247Z,1.40
2022-12-23T21:44:28.677Z,1.00
2022-12-23T21:46:34.353Z,2.17
2022-12-23T21:48:40.721Z,2.40
2022-12-23T21:50:45.571Z,2.20
2022-12-23T21:52:50.346Z,2.35
2022-12-23T21:54:55.136Z,2.00
2022-12-23T21:57:00.268Z,1.40
2022-12-23T22:01:15.640Z,1.65
2022-12-23T22:03:20.554Z,1.20
2022-12-23T22:05:25.277Z,1.10
2022-12-23T22:07:30.071Z,1.10
2022-12-23T22:09:35.044Z,1.20
2022-12-23T22:11:40.779Z,1.48
2022-12-23T22:13:46.837Z,1.20
2022-12-23T22:15:51.720Z,2.20
2022-12-23T22:17:59.123Z,1.48
2022-12-23T22:20:04.053Z,1.27
2022-12-23T22:22:08.895Z,1.45
2022-12-23T22:24:14.092Z,1.52
2022-12-23T22:28:30.831Z,1.30
2022-12-23T22:30:35.608Z,1.35
2022-12-23T22:32:42.518Z,0.85
2022-12-23T22:34:50.263Z,1.02
2022-12-23T22:36:55.204Z,0.88
2022-12-23T22:39:01.611Z,1.40
2022-12-23T22:41:06.506Z,4.20
2022-12-23T22:43:11.252Z,2.30
2022-12-23T22:45:16.123Z,2.00
2022-12-23T22:47:21.025Z,1.65
2022-12-23T22:49:26.123Z,2.45
2022-12-23T22:51:34.566Z,4.28
2022-12-23T22:53:39.764Z,3.22
2022-12-23T22:57:49.235Z,1.60
2022-12-23T22:59:54.093Z,1.30
2022-12-23T23:01:59.019Z,1.40
2022-12-23T23:04:06.102Z,0.88
2022-12-23T23:06:11.025Z,2.22
2022-12-23T23:08:18.378Z,1.65
2022-12-23T23:10:23.379Z,1.60
2022-12-23T23:12:28.141Z,1.60
2022-12-23T23:14:52.558Z,2.00
2022-12-23T23:16:57.476Z,1.75
2022-12-23T23:19:02.896Z,1.40
2022-12-23T23:21:08.129Z,0.98
2022-12-23T23:23:13.039Z,1.50
2022-12-23T23:25:20.517Z,1.27
2022-12-23T23:27:25.271Z,1.10
2022-12-23T23:29:30.347Z,1.13
2022-12-23T23:31:43.613Z,1.40
2022-12-23T23:33:49.385Z,1.33
2022-12-23T23:38:04.344Z,1.30
2022-12-23T23:40:10.835Z,1.48
2022-12-23T23:42:19.158Z,1.70
2022-12-23T23:44:24.237Z,1.73
2022-12-23T23:46:30.684Z,1.65
2022-12-23T23:48:35.763Z,1.67
2022-12-23T23:50:41.041Z,2.47
2022-12-23T23:52:45.918Z,2.60
2022-12-23T23:54:50.714Z,2.10
2022-12-23T23:56:55.951Z,2.33
